sensor_id;sensor_type;location;lat;lon;timestamp;temperature;humidity
39751;DHT22;37579;51.074;17.004;2023-02-04T00:01:24;22.90;53.30
39751;DHT22;37579;51.074;17.004;2023-02-04T00:03:50;23.00;53.30
39751;DHT22;37579;51.074;17.004;2023-02-04T00:06:16;22.90;53.60
39751;DHT22;37579;51.074;17.004;2023-02-04T00:08:42;22.90;53.20
39751;DHT22;37579;51.074;17.004;2023-02-04T00:11:08;22.90;53.10
39751;DHT22;37579;51.074;17.004;2023-02-04T00:13:34;22.90;53.20
39751;DHT22;37579;51.074;17.004;2023-02-04T00:16:00;22.90;53.20
39751;DHT22;37579;51.074;17.004;2023-02-04T00:18:27;22.90;53.10
39751;DHT22;37579;51.074;17.004;2023-02-04T00:20:52;22.90;53.20
39751;DHT22;37579;51.074;17.004;2023-02-04T00:23:18;22.90;53.10
39751;DHT22;37579;51.074;17.004;2023-02-04T00:25:44;22.90;53.10
39751;DHT22;37579;51.074;17.004;2023-02-04T00:28:10;22.90;53.10
39751;DHT22;37579;51.074;17.004;2023-02-04T00:30:36;22.90;53.00
39751;DHT22;37579;51.074;17.004;2023-02-04T00:33:02;22.80;53.00
39751;DHT22;37579;51.074;17.004;2023-02-04T00:35:27;22.80;52.90
39751;DHT22;37579;51.074;17.004;2023-02-04T00:37:53;22.80;53.00
39751;DHT22;37579;51.074;17.004;2023-02-04T00:40:19;22.80;53.00
39751;DHT22;37579;51.074;17.004;2023-02-04T00:42:45;22.80;52.90
39751;DHT22;37579;51.074;17.004;2023-02-04T00:45:11;22.80;52.90
39751;DHT22;37579;51.074;17.004;2023-02-04T00:47:37;22.80;52.90
39751;DHT22;37579;51.074;17.004;2023-02-04T00:50:03;22.80;53.00
39751;DHT22;37579;51.074;17.004;2023-02-04T00:52:29;22.70;52.90
39751;DHT22;37579;51.074;17.004;2023-02-04T00:54:55;22.70;52.90
39751;DHT22;37579;51.074;17.004;2023-02-04T00:57:21;22.80;53.00
39751;DHT22;37579;51.074;17.004;2023-02-04T00:59:47;22.80;53.10
39751;DHT22;37579;51.074;17.004;2023-02-04T01:02:13;22.70;53.20
39751;DHT22;37579;51.074;17.004;2023-02-04T01:04:38;22.70;53.80
39751;DHT22;37579;51.074;17.004;2023-02-04T01:07:04;22.70;53.70
39751;DHT22;37579;51.074;17.004;2023-02-04T01:09:30;22.70;54.00
39751;DHT22;37579;51.074;17.004;2023-02-04T01:11:56;22.70;54.00
39751;DHT22;37579;51.074;17.004;2023-02-04T01:14:22;22.70;54.30
39751;DHT22;37579;51.074;17.004;2023-02-04T01:16:48;22.70;54.10
39751;DHT22;37579;51.074;17.004;2023-02-04T01:19:13;22.70;54.00
39751;DHT22;37579;51.074;17.004;2023-02-04T01:21:39;22.70;55.30
39751;DHT22;37579;51.074;17.004;2023-02-04T01:24:05;22.70;55.00
39751;DHT22;37579;51.074;17.004;2023-02-04T01:26:51;22.70;54.70
39751;DHT22;37579;51.074;17.004;2023-02-04T01:29:17;22.70;54.40
39751;DHT22;37579;51.074;17.004;2023-02-04T01:31:42;22.60;54.30
39751;DHT22;37579;51.074;17.004;2023-02-04T01:34:08;22.70;54.30
39751;DHT22;37579;51.074;17.004;2023-02-04T01:36:34;22.70;54.10
39751;DHT22;37579;51.074;17.004;2023-02-04T01:39:00;22.70;54.10
39751;DHT22;37579;51.074;17.004;2023-02-04T01:41:26;22.70;53.90
39751;DHT22;37579;51.074;17.004;2023-02-04T01:43:52;22.70;53.90
39751;DHT22;37579;51.074;17.004;2023-02-04T01:46:18;22.60;53.70
39751;DHT22;37579;51.074;17.004;2023-02-04T01:48:45;22.60;53.70
39751;DHT22;37579;51.074;17.004;2023-02-04T01:51:13;22.60;53.60
39751;DHT22;37579;51.074;17.004;2023-02-04T01:53:41;22.60;53.60
39751;DHT22;37579;51.074;17.004;2023-02-04T01:56:19;22.60;53.50
39751;DHT22;37579;51.074;17.004;2023-02-04T01:58:46;22.60;53.40
39751;DHT22;37579;51.074;17.004;2023-02-04T02:01:14;22.60;53.40
39751;DHT22;37579;51.074;17.004;2023-02-04T02:03:40;22.60;53.40
39751;DHT22;37579;51.074;17.004;2023-02-04T02:06:07;22.60;53.30
39751;DHT22;37579;51.074;17.004;2023-02-04T02:08:35;22.60;53.30
39751;DHT22;37579;51.074;17.004;2023-02-04T02:11:01;22.50;53.30
39751;DHT22;37579;51.074;17.004;2023-02-04T02:13:27;22.60;53.30
39751;DHT22;37579;51.074;17.004;2023-02-04T02:15:53;22.60;53.30
39751;DHT22;37579;51.074;17.004;2023-02-04T02:18:19;22.50;53.30
39751;DHT22;37579;51.074;17.004;2023-02-04T02:20:45;22.50;53.30
39751;DHT22;37579;51.074;17.004;2023-02-04T02:23:49;22.50;53.40
39751;DHT22;37579;51.074;17.004;2023-02-04T02:26:07;22.50;53.20
39751;DHT22;37579;51.074;17.004;2023-02-04T02:28:33;22.50;53.20
39751;DHT22;37579;51.074;17.004;2023-02-04T02:30:59;22.50;53.30
39751;DHT22;37579;51.074;17.004;2023-02-04T02:33:25;22.50;53.30
39751;DHT22;37579;51.074;17.004;2023-02-04T02:35:51;22.50;53.30
39751;DHT22;37579;51.074;17.004;2023-02-04T02:38:18;22.50;53.30
39751;DHT22;37579;51.074;17.004;2023-02-04T02:40:44;22.50;53.20
39751;DHT22;37579;51.074;17.004;2023-02-04T02:43:17;22.50;53.30
39751;DHT22;37579;51.074;17.004;2023-02-04T02:45:44;22.50;53.30
39751;DHT22;37579;51.074;17.004;2023-02-04T02:48:10;22.50;53.30
39751;DHT22;37579;51.074;17.004;2023-02-04T02:50:36;22.40;53.20
39751;DHT22;37579;51.074;17.004;2023-02-04T02:53:02;22.40;53.30
39751;DHT22;37579;51.074;17.004;2023-02-04T02:55:29;22.40;53.40
39751;DHT22;37579;51.074;17.004;2023-02-04T02:57:57;22.40;53.40
39751;DHT22;37579;51.074;17.004;2023-02-04T03:00:26;22.40;53.30
39751;DHT22;37579;51.074;17.004;2023-02-04T03:03:03;22.40;53.40
39751;DHT22;37579;51.074;17.004;2023-02-04T03:05:32;22.40;53.30
39751;DHT22;37579;51.074;17.004;2023-02-04T03:08:00;22.40;53.20
39751;DHT22;37579;51.074;17.004;2023-02-04T03:10:27;22.40;53.20
39751;DHT22;37579;51.074;17.004;2023-02-04T03:12:53;22.40;53.10
39751;DHT22;37579;51.074;17.004;2023-02-04T03:15:19;22.50;53.10
39751;DHT22;37579;51.074;17.004;2023-02-04T03:17:45;22.50;53.00
39751;DHT22;37579;51.074;17.004;2023-02-04T03:20:13;22.50;52.90
39751;DHT22;37579;51.074;17.004;2023-02-04T03:22:40;22.50;52.90
39751;DHT22;37579;51.074;17.004;2023-02-04T03:25:07;22.50;52.80
39751;DHT22;37579;51.074;17.004;2023-02-04T03:27:33;22.60;52.80
39751;DHT22;37579;51.074;17.004;2023-02-04T03:29:59;22.60;52.80
39751;DHT22;37579;51.074;17.004;2023-02-04T03:32:25;22.60;52.70
39751;DHT22;37579;51.074;17.004;2023-02-04T03:34:51;22.60;52.70
39751;DHT22;37579;51.074;17.004;2023-02-04T03:37:16;22.60;52.70
39751;DHT22;37579;51.074;17.004;2023-02-04T03:39:42;22.50;52.70
39751;DHT22;37579;51.074;17.004;2023-02-04T03:42:08;22.50;52.60
39751;DHT22;37579;51.074;17.004;2023-02-04T03:44:34;22.60;52.70
39751;DHT22;37579;51.074;17.004;2023-02-04T03:46:59;22.60;52.70
39751;DHT22;37579;51.074;17.004;2023-02-04T03:49:25;22.60;52.70
39751;DHT22;37579;51.074;17.004;2023-02-04T03:51:52;22.50;52.60
39751;DHT22;37579;51.074;17.004;2023-02-04T03:54:18;22.60;52.70
39751;DHT22;37579;51.074;17.004;2023-02-04T03:56:44;22.50;52.60
39751;DHT22;37579;51.074;17.004;2023-02-04T03:59:10;22.50;52.60
39751;DHT22;37579;51.074;17.004;2023-02-04T04:01:35;22.50;52.60
39751;DHT22;37579;51.074;17.004;2023-02-04T04:04:01;22.50;52.60
39751;DHT22;37579;51.074;17.004;2023-02-04T04:06:27;22.50;52.60
39751;DHT22;37579;51.074;17.004;2023-02-04T04:08:53;22.60;52.70
39751;DHT22;37579;51.074;17.004;2023-02-04T04:11:18;22.50;52.60
39751;DHT22;37579;51.074;17.004;2023-02-04T04:13:46;22.50;52.60
39751;DHT22;37579;51.074;17.004;2023-02-04T04:16:12;22.50;52.70
39751;DHT22;37579;51.074;17.004;2023-02-04T04:18:38;22.50;52.70
39751;DHT22;37579;51.074;17.004;2023-02-04T04:21:03;22.50;52.70
39751;DHT22;37579;51.074;17.004;2023-02-04T04:23:29;22.50;52.70
39751;DHT22;37579;51.074;17.004;2023-02-04T04:25:55;22.50;52.70
39751;DHT22;37579;51.074;17.004;2023-02-04T04:28:21;22.50;52.70
39751;DHT22;37579;51.074;17.004;2023-02-04T04:30:47;22.50;52.70
39751;DHT22;37579;51.074;17.004;2023-02-04T04:33:12;22.50;52.70
39751;DHT22;37579;51.074;17.004;2023-02-04T04:35:38;22.50;52.60
39751;DHT22;37579;51.074;17.004;2023-02-04T04:38:04;22.50;52.60
39751;DHT22;37579;51.074;17.004;2023-02-04T04:40:30;22.50;52.70
39751;DHT22;37579;51.074;17.004;2023-02-04T04:42:56;22.50;52.70
39751;DHT22;37579;51.074;17.004;2023-02-04T04:45:21;22.50;52.60
39751;DHT22;37579;51.074;17.004;2023-02-04T04:47:47;22.50;52.60
39751;DHT22;37579;51.074;17.004;2023-02-04T04:50:13;22.50;52.60
39751;DHT22;37579;51.074;17.004;2023-02-04T04:52:39;22.50;52.50
39751;DHT22;37579;51.074;17.004;2023-02-04T04:55:05;22.50;52.50
39751;DHT22;37579;51.074;17.004;2023-02-04T04:57:33;22.50;52.50
39751;DHT22;37579;51.074;17.004;2023-02-04T04:59:59;22.50;52.50
39751;DHT22;37579;51.074;17.004;2023-02-04T05:02:24;22.50;52.40
39751;DHT22;37579;51.074;17.004;2023-02-04T05:04:51;22.50;52.50
39751;DHT22;37579;51.074;17.004;2023-02-04T05:07:17;22.40;52.40
39751;DHT22;37579;51.074;17.004;2023-02-04T05:09:42;22.40;52.40
39751;DHT22;37579;51.074;17.004;2023-02-04T05:12:08;22.40;52.30
39751;DHT22;37579;51.074;17.004;2023-02-04T05:14:34;22.40;52.20
39751;DHT22;37579;51.074;17.004;2023-02-04T05:17:00;22.50;52.40
39751;DHT22;37579;51.074;17.004;2023-02-04T05:19:26;22.40;52.30
39751;DHT22;37579;51.074;17.004;2023-02-04T05:21:52;22.40;52.40
39751;DHT22;37579;51.074;17.004;2023-02-04T05:24:17;22.40;52.40
39751;DHT22;37579;51.074;17.004;2023-02-04T05:26:43;22.40;52.50
39751;DHT22;37579;51.074;17.004;2023-02-04T05:29:09;22.40;52.50
39751;DHT22;37579;51.074;17.004;2023-02-04T05:31:35;22.40;52.60
39751;DHT22;37579;51.074;17.004;2023-02-04T05:34:01;22.40;52.60
39751;DHT22;37579;51.074;17.004;2023-02-04T05:36:27;22.40;52.60
39751;DHT22;37579;51.074;17.004;2023-02-04T05:38:52;22.40;52.60
39751;DHT22;37579;51.074;17.004;2023-02-04T05:41:18;22.40;52.70
39751;DHT22;37579;51.074;17.004;2023-02-04T05:43:44;22.30;52.70
39751;DHT22;37579;51.074;17.004;2023-02-04T05:46:10;22.40;52.80
39751;DHT22;37579;51.074;17.004;2023-02-04T05:48:36;22.40;52.80
39751;DHT22;37579;51.074;17.004;2023-02-04T05:51:02;22.40;52.80
39751;DHT22;37579;51.074;17.004;2023-02-04T05:53:27;22.40;52.80
39751;DHT22;37579;51.074;17.004;2023-02-04T05:55:53;22.40;52.80
39751;DHT22;37579;51.074;17.004;2023-02-04T05:58:19;22.40;52.80
39751;DHT22;37579;51.074;17.004;2023-02-04T06:00:45;22.40;52.80
39751;DHT22;37579;51.074;17.004;2023-02-04T06:03:10;22.40;52.80
39751;DHT22;37579;51.074;17.004;2023-02-04T06:05:39;22.40;52.80
39751;DHT22;37579;51.074;17.004;2023-02-04T06:08:05;22.40;52.80
39751;DHT22;37579;51.074;17.004;2023-02-04T06:10:31;22.40;52.70
39751;DHT22;37579;51.074;17.004;2023-02-04T06:12:57;22.40;52.70
39751;DHT22;37579;51.074;17.004;2023-02-04T06:15:22;22.40;52.80
39751;DHT22;37579;51.074;17.004;2023-02-04T06:17:48;22.40;52.70
39751;DHT22;37579;51.074;17.004;2023-02-04T06:20:14;22.40;52.60
39751;DHT22;37579;51.074;17.004;2023-02-04T06:22:40;22.50;52.60
39751;DHT22;37579;51.074;17.004;2023-02-04T06:25:06;22.50;52.50
39751;DHT22;37579;51.074;17.004;2023-02-04T06:27:32;22.50;52.40
39751;DHT22;37579;51.074;17.004;2023-02-04T06:29:58;22.50;52.30
39751;DHT22;37579;51.074;17.004;2023-02-04T06:32:24;22.60;52.30
39751;DHT22;37579;51.074;17.004;2023-02-04T06:34:49;22.60;52.10
39751;DHT22;37579;51.074;17.004;2023-02-04T06:37:15;22.60;52.10
39751;DHT22;37579;51.074;17.004;2023-02-04T06:39:42;22.60;52.10
39751;DHT22;37579;51.074;17.004;2023-02-04T06:42:08;22.60;52.10
39751;DHT22;37579;51.074;17.004;2023-02-04T06:44:34;22.60;52.00
39751;DHT22;37579;51.074;17.004;2023-02-04T06:47:00;22.60;52.00
39751;DHT22;37579;51.074;17.004;2023-02-04T06:49:25;22.60;51.90
39751;DHT22;37579;51.074;17.004;2023-02-04T06:51:51;22.70;52.60
39751;DHT22;37579;51.074;17.004;2023-02-04T06:54:17;22.70;51.90
39751;DHT22;37579;51.074;17.004;2023-02-04T06:56:43;22.60;51.80
39751;DHT22;37579;51.074;17.004;2023-02-04T06:59:10;22.70;52.10
39751;DHT22;37579;51.074;17.004;2023-02-04T07:01:35;22.70;52.10
39751;DHT22;37579;51.074;17.004;2023-02-04T07:04:01;22.70;52.20
39751;DHT22;37579;51.074;17.004;2023-02-04T07:06:27;22.70;52.20
39751;DHT22;37579;51.074;17.004;2023-02-04T07:08:53;22.80;52.30
39751;DHT22;37579;51.074;17.004;2023-02-04T07:11:19;22.80;52.30
39751;DHT22;37579;51.074;17.004;2023-02-04T07:13:45;22.80;52.40
39751;DHT22;37579;51.074;17.004;2023-02-04T07:16:11;22.80;52.40
39751;DHT22;37579;51.074;17.004;2023-02-04T07:18:36;22.80;52.50
39751;DHT22;37579;51.074;17.004;2023-02-04T07:21:02;22.80;52.50
39751;DHT22;37579;51.074;17.004;2023-02-04T07:23:28;22.80;52.60
39751;DHT22;37579;51.074;17.004;2023-02-04T07:25:54;22.80;52.60
39751;DHT22;37579;51.074;17.004;2023-02-04T07:28:24;22.90;52.70
39751;DHT22;37579;51.074;17.004;2023-02-04T07:30:50;22.90;52.60
39751;DHT22;37579;51.074;17.004;2023-02-04T07:33:16;23.00;52.60
39751;DHT22;37579;51.074;17.004;2023-02-04T07:35:42;23.00;52.50
39751;DHT22;37579;51.074;17.004;2023-02-04T07:38:09;23.00;52.50
39751;DHT22;37579;51.074;17.004;2023-02-04T07:40:35;23.00;52.30
39751;DHT22;37579;51.074;17.004;2023-02-04T07:43:00;23.00;52.30
39751;DHT22;37579;51.074;17.004;2023-02-04T07:45:27;23.10;52.30
39751;DHT22;37579;51.074;17.004;2023-02-04T07:47:53;23.20;52.00
39751;DHT22;37579;51.074;17.004;2023-02-04T07:50:19;23.30;51.80
39751;DHT22;37579;51.074;17.004;2023-02-04T07:52:44;23.30;51.70
39751;DHT22;37579;51.074;17.004;2023-02-04T07:55:10;23.40;51.70
39751;DHT22;37579;51.074;17.004;2023-02-04T07:57:36;23.50;51.50
39751;DHT22;37579;51.074;17.004;2023-02-04T08:00:03;23.50;51.60
39751;DHT22;37579;51.074;17.004;2023-02-04T08:02:38;23.50;51.70
39751;DHT22;37579;51.074;17.004;2023-02-04T08:05:04;23.60;51.80
39751;DHT22;37579;51.074;17.004;2023-02-04T08:07:30;23.60;51.80
39751;DHT22;37579;51.074;17.004;2023-02-04T08:09:56;23.60;51.80
39751;DHT22;37579;51.074;17.004;2023-02-04T08:12:22;23.70;52.00
39751;DHT22;37579;51.074;17.004;2023-02-04T08:14:48;23.80;51.90
39751;DHT22;37579;51.074;17.004;2023-02-04T08:17:13;23.80;51.90
39751;DHT22;37579;51.074;17.004;2023-02-04T08:19:39;23.90;51.90
39751;DHT22;37579;51.074;17.004;2023-02-04T08:22:05;23.90;51.80
39751;DHT22;37579;51.074;17.004;2023-02-04T08:24:31;23.90;52.00
39751;DHT22;37579;51.074;17.004;2023-02-04T08:26:57;23.90;51.90
39751;DHT22;37579;51.074;17.004;2023-02-04T08:29:24;24.00;52.00
39751;DHT22;37579;51.074;17.004;2023-02-04T08:31:52;24.00;51.90
39751;DHT22;37579;51.074;17.004;2023-02-04T08:34:18;24.00;51.90
39751;DHT22;37579;51.074;17.004;2023-02-04T08:36:44;24.00;51.90
39751;DHT22;37579;51.074;17.004;2023-02-04T08:39:10;24.00;51.90
39751;DHT22;37579;51.074;17.004;2023-02-04T08:41:37;24.00;51.90
39751;DHT22;37579;51.074;17.004;2023-02-04T08:44:03;24.10;51.60
39751;DHT22;37579;51.074;17.004;2023-02-04T08:46:29;24.10;51.70
39751;DHT22;37579;51.074;17.004;2023-02-04T08:48:56;24.10;51.70
39751;DHT22;37579;51.074;17.004;2023-02-04T08:51:21;24.10;51.60
39751;DHT22;37579;51.074;17.004;2023-02-04T08:53:47;24.10;51.60
39751;DHT22;37579;51.074;17.004;2023-02-04T08:56:13;24.10;51.80
39751;DHT22;37579;51.074;17.004;2023-02-04T08:58:45;24.20;51.60
39751;DHT22;37579;51.074;17.004;2023-02-04T09:01:12;24.20;51.40
39751;DHT22;37579;51.074;17.004;2023-02-04T09:03:38;24.20;51.20
39751;DHT22;37579;51.074;17.004;2023-02-04T09:06:05;24.20;51.20
39751;DHT22;37579;51.074;17.004;2023-02-04T09:08:32;24.30;51.20
39751;DHT22;37579;51.074;17.004;2023-02-04T09:10:58;24.20;51.50
39751;DHT22;37579;51.074;17.004;2023-02-04T09:13:24;24.20;51.30
39751;DHT22;37579;51.074;17.004;2023-02-04T09:15:50;24.20;51.30
39751;DHT22;37579;51.074;17.004;2023-02-04T09:18:17;24.20;51.30
39751;DHT22;37579;51.074;17.004;2023-02-04T09:20:47;24.20;51.30
39751;DHT22;37579;51.074;17.004;2023-02-04T09:23:14;24.20;51.20
39751;DHT22;37579;51.074;17.004;2023-02-04T09:25:42;24.20;51.30
39751;DHT22;37579;51.074;17.004;2023-02-04T09:28:09;24.10;51.40
39751;DHT22;37579;51.074;17.004;2023-02-04T09:30:37;24.20;51.50
39751;DHT22;37579;51.074;17.004;2023-02-04T09:33:03;24.10;51.50
39751;DHT22;37579;51.074;17.004;2023-02-04T09:35:29;24.10;51.50
39751;DHT22;37579;51.074;17.004;2023-02-04T09:37:54;24.10;51.60
39751;DHT22;37579;51.074;17.004;2023-02-04T09:40:20;24.10;51.60
39751;DHT22;37579;51.074;17.004;2023-02-04T09:42:50;24.00;51.60
39751;DHT22;37579;51.074;17.004;2023-02-04T09:45:22;24.00;51.60
39751;DHT22;37579;51.074;17.004;2023-02-04T09:47:49;23.90;51.60
39751;DHT22;37579;51.074;17.004;2023-02-04T09:50:18;23.90;51.70
39751;DHT22;37579;51.074;17.004;2023-02-04T09:52:49;23.80;51.80
39751;DHT22;37579;51.074;17.004;2023-02-04T09:55:17;23.80;52.00
39751;DHT22;37579;51.074;17.004;2023-02-04T09:57:43;23.70;52.00
39751;DHT22;37579;51.074;17.004;2023-02-04T10:00:20;23.70;52.00
39751;DHT22;37579;51.074;17.004;2023-02-04T10:02:48;23.70;52.10
39751;DHT22;37579;51.074;17.004;2023-02-04T10:05:16;23.60;52.30
39751;DHT22;37579;51.074;17.004;2023-02-04T10:07:44;23.60;52.40
39751;DHT22;37579;51.074;17.004;2023-02-04T10:10:20;23.60;52.40
39751;DHT22;37579;51.074;17.004;2023-02-04T10:12:49;23.60;52.50
39751;DHT22;37579;51.074;17.004;2023-02-04T10:15:18;23.60;52.40
39751;DHT22;37579;51.074;17.004;2023-02-04T10:17:50;23.50;52.50
39751;DHT22;37579;51.074;17.004;2023-02-04T10:20:18;23.50;52.60
39751;DHT22;37579;51.074;17.004;2023-02-04T10:22:48;23.10;44.40
39751;DHT22;37579;51.074;17.004;2023-02-04T10:25:20;23.10;52.70
39751;DHT22;37579;51.074;17.004;2023-02-04T10:27:57;23.20;51.90
39751;DHT22;37579;51.074;17.004;2023-02-04T10:30:26;23.30;51.70
39751;DHT22;37579;51.074;17.004;2023-02-04T10:32:53;23.30;52.10
39751;DHT22;37579;51.074;17.004;2023-02-04T10:35:20;23.30;52.30
39751;DHT22;37579;51.074;17.004;2023-02-04T10:37:47;23.20;52.70
39751;DHT22;37579;51.074;17.004;2023-02-04T10:40:34;23.30;53.30
39751;DHT22;37579;51.074;17.004;2023-02-04T10:43:15;23.20;53.70
39751;DHT22;37579;51.074;17.004;2023-02-04T10:46:00;23.20;54.70
39751;DHT22;37579;51.074;17.004;2023-02-04T10:48:27;23.10;54.40
39751;DHT22;37579;51.074;17.004;2023-02-04T10:50:55;23.10;54.50
39751;DHT22;37579;51.074;17.004;2023-02-04T10:53:23;23.10;54.70
39751;DHT22;37579;51.074;17.004;2023-02-04T10:56:16;23.10;54.70
39751;DHT22;37579;51.074;17.004;2023-02-04T10:58:42;23.20;54.60
39751;DHT22;37579;51.074;17.004;2023-02-04T11:01:13;23.20;54.50
39751;DHT22;37579;51.074;17.004;2023-02-04T11:03:40;23.30;54.50
39751;DHT22;37579;51.074;17.004;2023-02-04T11:06:18;23.30;54.90
39751;DHT22;37579;51.074;17.004;2023-02-04T11:08:45;23.40;54.30
39751;DHT22;37579;51.074;17.004;2023-02-04T11:11:16;23.40;54.40
39751;DHT22;37579;51.074;17.004;2023-02-04T11:18:56;23.50;54.50
39751;DHT22;37579;51.074;17.004;2023-02-04T11:21:48;23.50;54.60
39751;DHT22;37579;51.074;17.004;2023-02-04T11:26:49;23.60;54.30
39751;DHT22;37579;51.074;17.004;2023-02-04T11:32:26;23.60;54.10
39751;DHT22;37579;51.074;17.004;2023-02-04T11:34:53;23.60;54.10
39751;DHT22;37579;51.074;17.004;2023-02-04T11:37:43;23.60;54.10
39751;DHT22;37579;51.074;17.004;2023-02-04T11:40:29;23.70;53.90
39751;DHT22;37579;51.074;17.004;2023-02-04T11:42:57;23.70;53.80
39751;DHT22;37579;51.074;17.004;2023-02-04T11:45:27;23.70;53.80
39751;DHT22;37579;51.074;17.004;2023-02-04T11:47:56;23.70;53.80
39751;DHT22;37579;51.074;17.004;2023-02-04T11:50:30;23.70;53.90
39751;DHT22;37579;51.074;17.004;2023-02-04T11:52:58;23.70;53.80
39751;DHT22;37579;51.074;17.004;2023-02-04T11:55:24;23.70;53.90
39751;DHT22;37579;51.074;17.004;2023-02-04T11:57:52;23.70;53.80
39751;DHT22;37579;51.074;17.004;2023-02-04T12:00:24;23.70;53.70
39751;DHT22;37579;51.074;17.004;2023-02-04T12:02:56;23.70;53.70
39751;DHT22;37579;51.074;17.004;2023-02-04T12:05:44;23.60;53.60
39751;DHT22;37579;51.074;17.004;2023-02-04T12:08:33;23.60;53.50
39751;DHT22;37579;51.074;17.004;2023-02-04T12:11:09;23.50;53.50
39751;DHT22;37579;51.074;17.004;2023-02-04T12:13:47;23.50;53.40
39751;DHT22;37579;51.074;17.004;2023-02-04T12:16:14;23.50;53.40
39751;DHT22;37579;51.074;17.004;2023-02-04T12:18:40;23.50;53.40
39751;DHT22;37579;51.074;17.004;2023-02-04T12:21:06;23.50;53.50
39751;DHT22;37579;51.074;17.004;2023-02-04T12:23:32;23.50;53.40
39751;DHT22;37579;51.074;17.004;2023-02-04T12:25:58;23.50;53.40
39751;DHT22;37579;51.074;17.004;2023-02-04T12:28:25;23.40;53.40
39751;DHT22;37579;51.074;17.004;2023-02-04T12:30:52;23.40;53.40
39751;DHT22;37579;51.074;17.004;2023-02-04T12:33:18;23.40;53.40
39751;DHT22;37579;51.074;17.004;2023-02-04T12:35:44;23.40;53.40
39751;DHT22;37579;51.074;17.004;2023-02-04T12:38:10;23.40;53.40
39751;DHT22;37579;51.074;17.004;2023-02-04T12:40:36;23.30;53.50
39751;DHT22;37579;51.074;17.004;2023-02-04T12:43:02;23.30;53.50
39751;DHT22;37579;51.074;17.004;2023-02-04T12:45:28;23.30;53.40
39751;DHT22;37579;51.074;17.004;2023-02-04T12:47:54;23.30;53.40
39751;DHT22;37579;51.074;17.004;2023-02-04T12:50:19;23.30;53.50
39751;DHT22;37579;51.074;17.004;2023-02-04T12:52:54;23.30;53.50
39751;DHT22;37579;51.074;17.004;2023-02-04T12:55:21;23.30;53.50
39751;DHT22;37579;51.074;17.004;2023-02-04T12:57:47;23.30;53.50
39751;DHT22;37579;51.074;17.004;2023-02-04T13:00:14;23.20;53.70
39751;DHT22;37579;51.074;17.004;2023-02-04T13:02:40;23.20;53.60
39751;DHT22;37579;51.074;17.004;2023-02-04T13:05:07;23.20;53.70
39751;DHT22;37579;51.074;17.004;2023-02-04T13:07:33;23.20;53.70
39751;DHT22;37579;51.074;17.004;2023-02-04T13:09:59;23.20;53.60
39751;DHT22;37579;51.074;17.004;2023-02-04T13:12:25;23.20;53.70
39751;DHT22;37579;51.074;17.004;2023-02-04T13:14:51;23.20;53.80
39751;DHT22;37579;51.074;17.004;2023-02-04T13:17:18;23.20;53.80
39751;DHT22;37579;51.074;17.004;2023-02-04T13:19:44;23.20;54.00
39751;DHT22;37579;51.074;17.004;2023-02-04T13:22:10;23.10;54.00
39751;DHT22;37579;51.074;17.004;2023-02-04T13:24:36;23.10;54.10
39751;DHT22;37579;51.074;17.004;2023-02-04T13:27:01;23.10;54.50
39751;DHT22;37579;51.074;17.004;2023-02-04T13:29:27;23.10;54.40
39751;DHT22;37579;51.074;17.004;2023-02-04T13:31:53;23.20;54.40
39751;DHT22;37579;51.074;17.004;2023-02-04T13:34:19;23.20;54.60
39751;DHT22;37579;51.074;17.004;2023-02-04T13:36:45;23.20;54.70
39751;DHT22;37579;51.074;17.004;2023-02-04T13:39:11;23.20;54.80
39751;DHT22;37579;51.074;17.004;2023-02-04T13:41:37;23.20;54.70
39751;DHT22;37579;51.074;17.004;2023-02-04T13:44:03;23.20;54.70
39751;DHT22;37579;51.074;17.004;2023-02-04T13:46:30;23.20;54.80
39751;DHT22;37579;51.074;17.004;2023-02-04T13:48:55;23.20;55.00
39751;DHT22;37579;51.074;17.004;2023-02-04T13:51:21;23.20;55.00
39751;DHT22;37579;51.074;17.004;2023-02-04T13:53:47;23.20;55.00
39751;DHT22;37579;51.074;17.004;2023-02-04T13:56:13;23.30;55.20
39751;DHT22;37579;51.074;17.004;2023-02-04T13:58:39;23.30;55.10
39751;DHT22;37579;51.074;17.004;2023-02-04T14:01:13;23.40;55.00
39751;DHT22;37579;51.074;17.004;2023-02-04T14:03:40;23.40;54.90
39751;DHT22;37579;51.074;17.004;2023-02-04T14:06:07;23.40;54.80
39751;DHT22;37579;51.074;17.004;2023-02-04T14:08:33;23.40;54.70
39751;DHT22;37579;51.074;17.004;2023-02-04T14:10:59;23.40;54.60
39751;DHT22;37579;51.074;17.004;2023-02-04T14:13:25;23.40;55.20
39751;DHT22;37579;51.074;17.004;2023-02-04T14:15:51;23.50;54.60
39751;DHT22;37579;51.074;17.004;2023-02-04T14:18:17;23.40;54.40
39751;DHT22;37579;51.074;17.004;2023-02-04T14:20:43;23.50;54.40
39751;DHT22;37579;51.074;17.004;2023-02-04T14:23:09;23.50;54.40
39751;DHT22;37579;51.074;17.004;2023-02-04T14:25:38;23.50;54.40
39751;DHT22;37579;51.074;17.004;2023-02-04T14:28:04;23.50;55.10
39751;DHT22;37579;51.074;17.004;2023-02-04T14:30:31;23.50;54.50
39751;DHT22;37579;51.074;17.004;2023-02-04T14:32:57;23.60;54.80
39751;DHT22;37579;51.074;17.004;2023-02-04T14:35:24;23.60;54.80
39751;DHT22;37579;51.074;17.004;2023-02-04T14:37:50;23.60;54.90
39751;DHT22;37579;51.074;17.004;2023-02-04T14:40:17;23.60;55.00
39751;DHT22;37579;51.074;17.004;2023-02-04T14:42:44;23.60;55.40
39751;DHT22;37579;51.074;17.004;2023-02-04T14:45:12;23.60;55.30
39751;DHT22;37579;51.074;17.004;2023-02-04T14:47:39;23.60;55.40
39751;DHT22;37579;51.074;17.004;2023-02-04T14:50:07;23.60;55.60
39751;DHT22;37579;51.074;17.004;2023-02-04T14:52:33;23.60;55.60
39751;DHT22;37579;51.074;17.004;2023-02-04T14:54:59;23.50;55.50
39751;DHT22;37579;51.074;17.004;2023-02-04T14:57:25;23.50;55.60
39751;DHT22;37579;51.074;17.004;2023-02-04T14:59:51;23.50;55.60
39751;DHT22;37579;51.074;17.004;2023-02-04T15:02:17;23.50;55.60
39751;DHT22;37579;51.074;17.004;2023-02-04T15:04:43;23.50;55.50
39751;DHT22;37579;51.074;17.004;2023-02-04T15:07:10;23.50;55.50
39751;DHT22;37579;51.074;17.004;2023-02-04T15:09:36;23.50;55.70
39751;DHT22;37579;51.074;17.004;2023-02-04T15:12:02;23.50;55.70
39751;DHT22;37579;51.074;17.004;2023-02-04T15:14:28;23.50;55.80
39751;DHT22;37579;51.074;17.004;2023-02-04T15:16:54;23.50;55.70
39751;DHT22;37579;51.074;17.004;2023-02-04T15:19:20;23.40;55.70
39751;DHT22;37579;51.074;17.004;2023-02-04T15:21:48;23.40;55.60
39751;DHT22;37579;51.074;17.004;2023-02-04T15:24:14;23.40;55.70
39751;DHT22;37579;51.074;17.004;2023-02-04T15:26:40;23.40;55.70